Time;durP1;ratioP1;P1;durP2;ratioP2;P2;SDS_P1;SDS_P2;PMS_P1;PMS_P2;Temp;Humidity;BMP_temperature;BMP_pressure;BME280_temperature;BME280_humidity;BME280_pressure;Samples;Min_cycle;Max_cycle;Signal;HPM_P1;HPM_P2
2024/02/23 00:00:18;;;;;;;1.10;1.00;;;;;;;;;;5074254;28;20493;-66
2024/02/23 00:02:45;;;;;;;0.90;0.90;;;;;;;;;;5074419;28;20526;-66
2024/02/23 00:05:11;;;;;;;1.10;1.00;;;;;;;;;;5074040;28;20534;-66
2024/02/23 00:07:38;;;;;;;0.90;0.90;;;;;;;;;;5074197;28;20446;-66
2024/02/23 00:10:06;;;;;;;1.00;0.90;;;;;;;;;;5074144;28;20446;-67
2024/02/23 00:12:33;;;;;;;0.90;0.90;;;;;;;;;;5074070;28;20458;-66
2024/02/23 00:15:01;;;;;;;1.53;1.17;;;;;;;;;;5073854;28;20448;-66
2024/02/23 00:17:28;;;;;;;3.77;1.10;;;;;;;;;;5074050;28;20482;-66
2024/02/23 00:19:55;;;;;;;1.57;0.90;;;;;;;;;;5073971;28;20542;-66
2024/02/23 00:22:22;;;;;;;1.10;1.00;;;;;;;;;;5073969;28;20483;-66
2024/02/23 00:24:48;;;;;;;1.20;1.10;;;;;;;;;;5073909;28;20927;-67
2024/02/23 00:27:16;;;;;;;0.80;0.80;;;;;;;;;;5073738;28;20535;-67
2024/02/23 00:29:42;;;;;;;1.03;0.93;;;;;;;;;;5073625;28;20451;-66
2024/02/23 00:32:11;;;;;;;1.10;1.00;;;;;;;;;;5073839;28;20535;-67
2024/02/23 00:34:38;;;;;;;1.10;1.00;;;;;;;;;;5073668;28;20538;-66
2024/02/23 00:37:07;;;;;;;1.20;0.93;;;;;;;;;;5073614;28;20479;-66
2024/02/23 00:39:34;;;;;;;0.93;0.90;;;;;;;;;;5073299;28;21000;-66
2024/02/23 00:42:01;;;;;;;1.07;0.93;;;;;;;;;;5073447;28;20474;-66
2024/02/23 00:44:28;;;;;;;1.00;0.83;;;;;;;;;;5073318;28;20454;-66
2024/02/23 00:46:57;;;;;;;1.57;1.00;;;;;;;;;;5073535;28;20501;-66
2024/02/23 00:49:25;;;;;;;0.77;0.77;;;;;;;;;;5073502;28;20443;-66
2024/02/23 00:51:52;;;;;;;1.10;1.00;;;;;;;;;;5073333;28;20447;-67
2024/02/23 00:54:19;;;;;;;1.03;1.00;;;;;;;;;;5073309;28;20886;-66
2024/02/23 00:56:46;;;;;;;1.97;1.27;;;;;;;;;;5073017;28;20559;-66
2024/02/23 00:59:13;;;;;;;1.30;1.03;;;;;;;;;;5073187;28;20450;-66
2024/02/23 01:01:40;;;;;;;1.13;0.90;;;;;;;;;;5073332;28;20554;-66
2024/02/23 01:04:07;;;;;;;1.17;0.87;;;;;;;;;;5073393;28;20878;-66
2024/02/23 01:06:35;;;;;;;1.67;1.00;;;;;;;;;;5073161;28;20439;-66
2024/02/23 01:09:04;;;;;;;1.10;1.00;;;;;;;;;;5073083;28;20450;-66
2024/02/23 01:11:31;;;;;;;1.30;1.20;;;;;;;;;;5073280;28;20505;-66
2024/02/23 01:13:58;;;;;;;0.90;0.90;;;;;;;;;;5073185;28;20883;-66
2024/02/23 01:16:25;;;;;;;0.90;0.90;;;;;;;;;;5073114;28;20441;-66
2024/02/23 01:18:51;;;;;;;2.10;0.93;;;;;;;;;;5073093;28;20451;-66
2024/02/23 01:21:18;;;;;;;1.17;1.07;;;;;;;;;;5072916;28;20450;-67
2024/02/23 01:23:47;;;;;;;1.10;1.00;;;;;;;;;;5072859;28;20809;-66
2024/02/23 01:26:14;;;;;;;1.10;0.90;;;;;;;;;;5073092;28;20443;-66
2024/02/23 01:28:41;;;;;;;0.90;0.90;;;;;;;;;;5073215;28;20482;-66
2024/02/23 01:31:10;;;;;;;1.13;0.83;;;;;;;;;;5073002;28;20544;-66
2024/02/23 01:33:37;;;;;;;3.83;1.87;;;;;;;;;;5072899;28;20447;-66
2024/02/23 01:36:05;;;;;;;1.33;1.23;;;;;;;;;;5072877;28;20447;-66
2024/02/23 01:38:32;;;;;;;1.10;0.93;;;;;;;;;;5072462;28;20517;-66
2024/02/23 01:41:00;;;;;;;1.00;0.90;;;;;;;;;;5072946;28;20538;-66
2024/02/23 01:43:27;;;;;;;1.30;1.20;;;;;;;;;;5072817;28;20543;-66
2024/02/23 01:45:55;;;;;;;1.10;1.00;;;;;;;;;;5072801;28;20878;-67
2024/02/23 01:48:22;;;;;;;1.10;1.00;;;;;;;;;;5072749;28;20807;-66
2024/02/23 01:50:49;;;;;;;0.90;0.90;;;;;;;;;;5072595;28;20447;-67
2024/02/23 01:53:16;;;;;;;1.00;0.90;;;;;;;;;;5072828;28;20531;-67
2024/02/23 01:55:43;;;;;;;0.83;0.83;;;;;;;;;;5072760;28;20447;-66
2024/02/23 01:58:11;;;;;;;5.03;1.10;;;;;;;;;;5072526;28;20562;-66
2024/02/23 02:00:38;;;;;;;1.20;1.03;;;;;;;;;;5072624;28;20473;-66
2024/02/23 02:03:06;;;;;;;2.10;1.10;;;;;;;;;;5072690;28;20509;-66
2024/02/23 02:05:32;;;;;;;1.10;1.00;;;;;;;;;;5072527;28;20497;-66
2024/02/23 02:08:00;;;;;;;0.80;0.80;;;;;;;;;;5072700;28;20475;-66
2024/02/23 02:10:27;;;;;;;4.30;0.80;;;;;;;;;;5073066;28;20857;-66
2024/02/23 02:12:54;;;;;;;0.90;0.90;;;;;;;;;;5076365;28;20443;-66
2024/02/23 02:15:22;;;;;;;1.37;0.90;;;;;;;;;;5076668;28;20451;-66
2024/02/23 02:17:49;;;;;;;0.80;0.80;;;;;;;;;;5076041;28;20475;-66
2024/02/23 02:20:16;;;;;;;3.00;1.10;;;;;;;;;;5076370;28;20530;-66
2024/02/23 02:22:43;;;;;;;0.80;0.73;;;;;;;;;;5076358;28;20550;-66
2024/02/23 02:25:10;;;;;;;1.73;1.03;;;;;;;;;;5076215;28;20444;-66
2024/02/23 02:27:37;;;;;;;1.27;0.63;;;;;;;;;;5076157;28;20447;-66
2024/02/23 02:30:04;;;;;;;0.90;0.63;;;;;;;;;;5076066;28;20822;-66
2024/02/23 02:32:32;;;;;;;1.37;0.80;;;;;;;;;;5075807;28;21002;-67
2024/02/23 02:35:00;;;;;;;0.60;0.50;;;;;;;;;;5076137;28;20443;-66
2024/02/23 02:37:27;;;;;;;0.70;0.50;;;;;;;;;;5075864;28;20557;-66
2024/02/23 02:39:53;;;;;;;1.77;0.70;;;;;;;;;;5075731;28;20567;-67
2024/02/23 02:42:20;;;;;;;1.70;0.60;;;;;;;;;;5075824;28;20874;-66
2024/02/23 02:44:47;;;;;;;2.67;0.73;;;;;;;;;;5075791;28;20443;-66
2024/02/23 02:47:14;;;;;;;0.60;0.50;;;;;;;;;;5075653;28;20534;-67
2024/02/23 02:49:42;;;;;;;0.90;0.80;;;;;;;;;;5075833;28;20530;-67
2024/02/23 02:52:09;;;;;;;1.23;0.90;;;;;;;;;;5075893;28;20443;-66
2024/02/23 02:54:36;;;;;;;0.70;0.60;;;;;;;;;;5075649;28;20538;-66
2024/02/23 02:57:03;;;;;;;0.70;0.50;;;;;;;;;;5075571;28;20487;-66
2024/02/23 02:59:31;;;;;;;6.27;0.60;;;;;;;;;;5075500;28;20852;-67
2024/02/23 03:01:58;;;;;;;0.70;0.60;;;;;;;;;;5075601;28;20801;-67
2024/02/23 03:04:25;;;;;;;3.00;0.60;;;;;;;;;;5075539;28;20475;-67
2024/02/23 03:06:53;;;;;;;1.30;0.60;;;;;;;;;;5075555;28;20444;-67
2024/02/23 03:09:20;;;;;;;3.03;0.80;;;;;;;;;;5075224;28;20942;-67
2024/02/23 03:11:47;;;;;;;1.13;0.57;;;;;;;;;;5075281;28;20486;-67
2024/02/23 03:14:14;;;;;;;1.03;0.50;;;;;;;;;;5075180;28;20793;-66
2024/02/23 03:16:41;;;;;;;1.63;0.60;;;;;;;;;;5075339;28;20449;-67
2024/02/23 03:19:08;;;;;;;2.03;0.57;;;;;;;;;;5075101;28;20483;-66
2024/02/23 03:21:35;;;;;;;1.17;0.60;;;;;;;;;;5075137;28;20530;-66
2024/02/23 03:24:03;;;;;;;0.90;0.50;;;;;;;;;;5075066;28;20477;-66
2024/02/23 03:26:30;;;;;;;0.70;0.50;;;;;;;;;;5074960;28;20440;-66
2024/02/23 03:28:57;;;;;;;0.60;0.50;;;;;;;;;;5074860;28;20443;-66
2024/02/23 03:31:24;;;;;;;0.70;0.60;;;;;;;;;;5075018;28;20440;-67
2024/02/23 03:33:51;;;;;;;1.23;0.70;;;;;;;;;;5074938;28;20440;-66
2024/02/23 03:36:18;;;;;;;0.70;0.50;;;;;;;;;;5075256;28;20498;-67
2024/02/23 03:38:45;;;;;;;0.63;0.50;;;;;;;;;;5074746;28;20830;-67
2024/02/23 03:41:13;;;;;;;0.70;0.50;;;;;;;;;;5074639;28;20454;-66
2024/02/23 03:43:40;;;;;;;0.60;0.50;;;;;;;;;;5074557;28;20539;-67
2024/02/23 03:46:07;;;;;;;2.93;0.70;;;;;;;;;;5074762;28;20870;-67
2024/02/23 03:48:35;;;;;;;0.77;0.60;;;;;;;;;;5074560;28;20597;-67
2024/02/23 03:51:02;;;;;;;0.70;0.50;;;;;;;;;;5074536;28;20440;-67
2024/02/23 03:53:29;;;;;;;0.90;0.57;;;;;;;;;;5074354;28;20526;-67
2024/02/23 03:55:56;;;;;;;2.40;0.50;;;;;;;;;;5074363;28;20533;-67
2024/02/23 03:58:24;;;;;;;1.00;0.50;;;;;;;;;;5074504;28;20489;-67
2024/02/23 04:00:51;;;;;;;0.90;0.50;;;;;;;;;;5074350;28;20475;-67
2024/02/23 04:03:18;;;;;;;0.70;0.53;;;;;;;;;;5074386;28;21041;-67
2024/02/23 04:05:45;;;;;;;1.00;0.60;;;;;;;;;;5074215;28;20539;-66
2024/02/23 04:08:12;;;;;;;1.13;0.50;;;;;;;;;;5074021;28;21010;-67
2024/02/23 04:10:39;;;;;;;0.63;0.60;;;;;;;;;;5073966;28;20532;-66
2024/02/23 04:13:06;;;;;;;1.70;0.67;;;;;;;;;;5074211;28;20802;-66
2024/02/23 04:15:34;;;;;;;0.73;0.70;;;;;;;;;;5074157;28;20531;-66
2024/02/23 04:18:01;;;;;;;0.97;0.70;;;;;;;;;;5073867;28;20565;-66
2024/02/23 04:20:28;;;;;;;1.93;0.67;;;;;;;;;;5073889;28;20449;-66
2024/02/23 04:22:55;;;;;;;1.20;0.80;;;;;;;;;;5073749;28;20534;-66
2024/02/23 04:25:22;;;;;;;0.87;0.50;;;;;;;;;;5074038;28;20482;-67
2024/02/23 04:27:49;;;;;;;0.90;0.60;;;;;;;;;;5073893;28;20535;-67
2024/02/23 04:30:16;;;;;;;1.53;0.57;;;;;;;;;;5073763;28;20534;-67
2024/02/23 04:32:44;;;;;;;1.33;0.60;;;;;;;;;;5073717;28;20443;-67
2024/02/23 04:35:12;;;;;;;2.30;0.70;;;;;;;;;;5073248;28;20475;-67
2024/02/23 04:37:38;;;;;;;0.60;0.50;;;;;;;;;;5073423;28;20476;-67
2024/02/23 04:40:06;;;;;;;2.40;0.70;;;;;;;;;;5073402;28;20467;-66
2024/02/23 04:42:33;;;;;;;0.63;0.50;;;;;;;;;;5073454;28;20466;-67
2024/02/23 04:45:00;;;;;;;1.30;0.60;;;;;;;;;;5073513;28;20526;-67
2024/02/23 04:47:27;;;;;;;1.20;0.60;;;;;;;;;;5073803;28;20446;-67
2024/02/23 04:49:55;;;;;;;0.97;0.50;;;;;;;;;;5073343;28;20810;-66
2024/02/23 04:52:22;;;;;;;1.37;0.60;;;;;;;;;;5073191;28;20446;-66
2024/02/23 04:54:49;;;;;;;1.77;0.80;;;;;;;;;;5073446;28;20859;-67
2024/02/23 04:57:15;;;;;;;1.00;0.50;;;;;;;;;;5073398;28;20444;-67
2024/02/23 04:59:42;;;;;;;0.60;0.50;;;;;;;;;;5073168;28;20812;-66
2024/02/23 05:02:09;;;;;;;1.43;0.50;;;;;;;;;;5073113;28;20448;-66
2024/02/23 05:04:36;;;;;;;2.30;0.87;;;;;;;;;;5073077;28;20447;-67
2024/02/23 05:07:05;;;;;;;1.07;0.70;;;;;;;;;;5073334;28;20444;-67
2024/02/23 05:09:32;;;;;;;0.80;0.50;;;;;;;;;;5073245;28;20458;-67
2024/02/23 05:11:59;;;;;;;0.70;0.50;;;;;;;;;;5073162;28;21002;-67
2024/02/23 05:14:26;;;;;;;0.80;0.50;;;;;;;;;;5073533;28;20522;-67
2024/02/23 05:16:53;;;;;;;1.00;0.60;;;;;;;;;;5072975;28;21024;-67
2024/02/23 05:19:20;;;;;;;1.30;0.50;;;;;;;;;;5072847;28;20479;-67
2024/02/23 05:21:47;;;;;;;0.87;0.87;;;;;;;;;;5073148;28;20524;-66
2024/02/23 05:24:15;;;;;;;0.80;0.70;;;;;;;;;;5073137;28;20483;-66
2024/02/23 05:26:44;;;;;;;1.10;0.60;;;;;;;;;;5072992;28;20540;-66
2024/02/23 05:29:12;;;;;;;0.63;0.57;;;;;;;;;;5072715;28;20932;-66
2024/02/23 05:31:47;;;;;;;0.70;0.50;;;;;;;;;;5072743;28;20945;-66
2024/02/23 05:34:13;;;;;;;0.83;0.50;;;;;;;;;;5072957;28;20443;-67
2024/02/23 05:36:40;;;;;;;1.73;0.67;;;;;;;;;;5072971;28;20546;-67
2024/02/23 05:39:09;;;;;;;0.70;0.60;;;;;;;;;;5072527;28;20579;-66
2024/02/23 05:41:37;;;;;;;1.30;0.50;;;;;;;;;;5072429;28;20992;-67
2024/02/23 05:44:05;;;;;;;1.93;0.70;;;;;;;;;;5072530;28;20530;-67
2024/02/23 05:46:32;;;;;;;6.13;0.70;;;;;;;;;;5074914;28;20461;-66
2024/02/23 05:48:59;;;;;;;0.60;0.60;;;;;;;;;;5076752;28;21021;-66
2024/02/23 05:51:26;;;;;;;0.80;0.60;;;;;;;;;;5076773;28;20469;-66
2024/02/23 05:53:53;;;;;;;1.23;0.50;;;;;;;;;;5076617;28;21011;-67
2024/02/23 05:56:20;;;;;;;0.60;0.40;;;;;;;;;;5076569;28;20443;-67
2024/02/23 05:58:48;;;;;;;1.37;0.50;;;;;;;;;;5076499;28;20570;-67
2024/02/23 06:01:15;;;;;;;0.60;0.50;;;;;;;;;;5076749;28;20444;-67
2024/02/23 06:03:42;;;;;;;0.80;0.70;;;;;;;;;;5076647;28;20531;-67
2024/02/23 06:06:09;;;;;;;1.07;0.53;;;;;;;;;;5076504;28;20477;-67
2024/02/23 06:08:37;;;;;;;0.63;0.50;;;;;;;;;;5076405;28;20539;-67
2024/02/23 06:11:04;;;;;;;0.60;0.50;;;;;;;;;;5076348;28;20474;-67
2024/02/23 06:13:31;;;;;;;0.93;0.60;;;;;;;;;;5076099;28;20451;-66
2024/02/23 06:15:59;;;;;;;0.70;0.60;;;;;;;;;;5076450;28;20533;-67
2024/02/23 06:18:26;;;;;;;0.87;0.80;;;;;;;;;;5076312;28;20509;-67
2024/02/23 06:20:53;;;;;;;1.83;0.77;;;;;;;;;;5076167;28;20875;-66
2024/02/23 06:23:21;;;;;;;0.60;0.50;;;;;;;;;;5076052;28;20447;-66
2024/02/23 06:25:48;;;;;;;0.50;0.47;;;;;;;;;;5075708;28;20448;-66
2024/02/23 06:28:15;;;;;;;1.63;0.50;;;;;;;;;;5075776;28;20474;-66
2024/02/23 06:30:42;;;;;;;0.60;0.50;;;;;;;;;;5076047;28;20443;-66
2024/02/23 06:33:10;;;;;;;1.57;1.47;;;;;;;;;;5075822;28;20534;-66
2024/02/23 06:35:37;;;;;;;0.80;0.77;;;;;;;;;;5075742;28;20447;-65
2024/02/23 06:38:05;;;;;;;1.10;0.87;;;;;;;;;;5075796;28;20570;-66
2024/02/23 06:40:32;;;;;;;0.70;0.50;;;;;;;;;;5074427;28;20490;-66
2024/02/23 06:42:59;;;;;;;0.60;0.50;;;;;;;;;;5074738;28;20447;-66
2024/02/23 06:45:26;;;;;;;0.60;0.50;;;;;;;;;;5074618;28;20443;-66
2024/02/23 06:47:53;;;;;;;0.80;0.50;;;;;;;;;;5074362;28;20443;-66
2024/02/23 06:50:22;;;;;;;1.10;0.50;;;;;;;;;;5074409;28;20535;-66
2024/02/23 06:52:49;;;;;;;3.90;0.50;;;;;;;;;;5074335;28;20942;-66
2024/02/23 06:55:17;;;;;;;0.70;0.50;;;;;;;;;;5074291;28;20443;-66
2024/02/23 06:57:44;;;;;;;0.70;0.70;;;;;;;;;;5074020;28;20464;-66
2024/02/23 07:00:11;;;;;;;0.80;0.50;;;;;;;;;;5074287;28;20575;-66
2024/02/23 07:02:39;;;;;;;0.60;0.50;;;;;;;;;;5074177;28;20451;-66
2024/02/23 07:05:06;;;;;;;0.73;0.53;;;;;;;;;;5074210;28;20443;-66
2024/02/23 07:07:34;;;;;;;1.10;0.70;;;;;;;;;;5073994;28;20531;-66
2024/02/23 07:10:01;;;;;;;0.70;0.60;;;;;;;;;;5074186;28;20454;-66
2024/02/23 07:12:28;;;;;;;0.60;0.50;;;;;;;;;;5074194;28;20995;-66
2024/02/23 07:14:55;;;;;;;0.60;0.40;;;;;;;;;;5074155;28;20444;-66
2024/02/23 07:17:22;;;;;;;2.90;0.60;;;;;;;;;;5074034;28;20448;-66
2024/02/23 07:19:50;;;;;;;1.83;0.60;;;;;;;;;;5073582;28;20573;-66
2024/02/23 07:22:18;;;;;;;0.80;0.67;;;;;;;;;;5073600;28;20959;-66
2024/02/23 07:24:47;;;;;;;0.80;0.60;;;;;;;;;;5073713;28;20448;-66
2024/02/23 07:27:13;;;;;;;1.30;0.93;;;;;;;;;;5073830;28;20444;-66
2024/02/23 07:29:40;;;;;;;0.93;0.80;;;;;;;;;;5073643;28;20535;-66
2024/02/23 07:32:08;;;;;;;1.93;0.77;;;;;;;;;;5073523;28;20471;-66
2024/02/23 07:34:34;;;;;;;0.80;0.70;;;;;;;;;;5073979;28;20528;-66
2024/02/23 07:37:02;;;;;;;2.27;0.77;;;;;;;;;;5073527;28;20950;-66
2024/02/23 07:39:29;;;;;;;0.80;0.60;;;;;;;;;;5040269;28;959088;-66
2024/02/23 07:41:57;;;;;;;1.50;0.60;;;;;;;;;;5074663;28;20196;-66
2024/02/23 07:44:25;;;;;;;2.73;0.63;;;;;;;;;;5074505;28;20885;-66
2024/02/23 07:46:54;;;;;;;1.43;0.50;;;;;;;;;;5074289;28;20939;-66
2024/02/23 07:49:22;;;;;;;0.97;0.60;;;;;;;;;;5074283;28;20470;-66
2024/02/23 07:51:49;;;;;;;0.60;0.50;;;;;;;;;;5074556;28;20490;-67
2024/02/23 07:54:16;;;;;;;0.90;0.60;;;;;;;;;;5074508;28;20454;-67
2024/02/23 07:56:43;;;;;;;6.07;4.30;;;;;;;;;;5074245;28;20475;-67
2024/02/23 07:59:11;;;;;;;0.90;0.77;;;;;;;;;;5074055;28;20478;-68
2024/02/23 08:01:39;;;;;;;1.67;0.57;;;;;;;;;;5073781;28;21006;-67
2024/02/23 08:04:06;;;;;;;2.03;0.80;;;;;;;;;;5074194;28;20447;-68
2024/02/23 08:06:33;;;;;;;0.77;0.70;;;;;;;;;;5073898;28;21007;-68
2024/02/23 08:09:00;;;;;;;1.10;0.90;;;;;;;;;;5073273;28;20473;-68
2024/02/23 08:11:27;;;;;;;4.63;0.50;;;;;;;;;;5074007;28;20535;-68
2024/02/23 08:13:54;;;;;;;0.90;0.60;;;;;;;;;;5073863;28;20883;-69
2024/02/23 08:16:22;;;;;;;2.93;0.60;;;;;;;;;;5073398;28;20454;-69
2024/02/23 08:18:49;;;;;;;0.80;0.50;;;;;;;;;;5073473;28;20527;-69
2024/02/23 08:21:16;;;;;;;0.80;0.50;;;;;;;;;;5073616;28;20939;-69
2024/02/23 08:23:43;;;;;;;0.60;0.50;;;;;;;;;;5072985;28;20456;-68
2024/02/23 08:26:10;;;;;;;1.20;0.50;;;;;;;;;;5073632;28;20450;-68
2024/02/23 08:28:37;;;;;;;0.70;0.50;;;;;;;;;;5073572;28;20793;-68
2024/02/23 08:31:04;;;;;;;2.60;0.80;;;;;;;;;;5073442;28;20534;-68
2024/02/23 08:33:32;;;;;;;3.63;0.60;;;;;;;;;;5073784;28;20459;-68
2024/02/23 08:35:59;;;;;;;3.13;0.60;;;;;;;;;;5073278;28;20966;-67
2024/02/23 08:38:26;;;;;;;0.90;0.80;;;;;;;;;;5073602;28;20450;-68
2024/02/23 08:40:53;;;;;;;0.80;0.70;;;;;;;;;;5073011;28;20569;-68
2024/02/23 08:43:20;;;;;;;1.10;1.00;;;;;;;;;;5073306;28;20887;-68
2024/02/23 08:45:48;;;;;;;0.80;0.70;;;;;;;;;;5073639;28;20443;-68
2024/02/23 08:48:15;;;;;;;0.97;0.87;;;;;;;;;;5073360;28;20444;-68
2024/02/23 08:50:43;;;;;;;0.90;0.70;;;;;;;;;;5073445;28;20462;-68
2024/02/23 08:53:10;;;;;;;0.80;0.70;;;;;;;;;;5073362;28;20542;-68
2024/02/23 08:55:37;;;;;;;1.80;0.77;;;;;;;;;;5073265;28;20450;-68
2024/02/23 08:58:05;;;;;;;1.30;1.13;;;;;;;;;;5072964;28;20482;-68
2024/02/23 09:00:32;;;;;;;0.80;0.70;;;;;;;;;;5073264;28;20835;-68
2024/02/23 09:02:59;;;;;;;1.57;1.10;;;;;;;;;;5073271;28;20443;-68
2024/02/23 09:05:27;;;;;;;0.77;0.70;;;;;;;;;;5073055;28;20501;-68
2024/02/23 09:07:55;;;;;;;2.63;0.67;;;;;;;;;;5072987;28;20451;-68
2024/02/23 09:10:22;;;;;;;1.67;0.80;;;;;;;;;;5072861;28;20542;-68
2024/02/23 09:12:49;;;;;;;0.80;0.63;;;;;;;;;;5073210;28;20535;-68
2024/02/23 09:15:16;;;;;;;2.03;0.93;;;;;;;;;;5073089;28;20534;-68
2024/02/23 09:17:43;;;;;;;0.80;0.60;;;;;;;;;;5073008;28;20530;-68
2024/02/23 09:20:11;;;;;;;0.60;0.50;;;;;;;;;;5072790;28;20573;-68
2024/02/23 09:22:37;;;;;;;3.17;0.70;;;;;;;;;;5072810;28;20531;-68
2024/02/23 09:25:06;;;;;;;0.67;0.63;;;;;;;;;;5072686;28;20822;-68
2024/02/23 09:27:36;;;;;;;0.70;0.57;;;;;;;;;;5072873;28;20519;-68
2024/02/23 09:30:04;;;;;;;1.13;0.60;;;;;;;;;;5072891;28;20652;-68
2024/02/23 09:32:30;;;;;;;2.40;0.70;;;;;;;;;;5072610;28;20447;-68
2024/02/23 09:34:58;;;;;;;6.00;0.70;;;;;;;;;;5072796;28;20446;-68
2024/02/23 09:37:25;;;;;;;4.00;0.70;;;;;;;;;;5072633;28;20939;-68
2024/02/23 09:39:52;;;;;;;1.63;0.90;;;;;;;;;;5072330;28;20561;-68
2024/02/23 09:42:24;;;;;;;0.90;0.63;;;;;;;;;;5072861;28;20799;-68
2024/02/23 09:44:56;;;;;;;2.80;1.47;;;;;;;;;;5072744;28;20453;-68
2024/02/23 09:47:22;;;;;;;0.80;0.70;;;;;;;;;;5072722;28;20501;-68
2024/02/23 09:49:51;;;;;;;0.70;0.57;;;;;;;;;;5072649;28;20936;-68
2024/02/23 09:52:19;;;;;;;0.80;0.60;;;;;;;;;;5072448;28;21018;-68
2024/02/23 09:54:46;;;;;;;1.10;0.60;;;;;;;;;;5072677;28;20531;-69
2024/02/23 09:57:14;;;;;;;1.23;0.70;;;;;;;;;;5072540;28;20440;-68
2024/02/23 09:59:43;;;;;;;1.10;0.70;;;;;;;;;;5072432;28;20476;-68
2024/02/23 10:02:11;;;;;;;0.70;0.60;;;;;;;;;;5072413;28;20447;-69
2024/02/23 10:04:39;;;;;;;0.70;0.60;;;;;;;;;;5072416;28;20443;-69
2024/02/23 10:07:06;;;;;;;1.30;0.50;;;;;;;;;;5072623;28;20459;-69
2024/02/23 10:09:33;;;;;;;1.97;1.40;;;;;;;;;;5072531;28;20986;-70
2024/02/23 10:12:00;;;;;;;0.60;0.50;;;;;;;;;;5072537;28;20475;-70
2024/02/23 10:14:27;;;;;;;1.53;0.70;;;;;;;;;;5072415;28;20534;-70
2024/02/23 10:16:55;;;;;;;0.87;0.60;;;;;;;;;;5072325;28;20535;-69
2024/02/23 10:19:22;;;;;;;0.80;0.60;;;;;;;;;;5072202;28;20458;-69
2024/02/23 10:21:49;;;;;;;1.27;0.50;;;;;;;;;;5072486;28;20530;-70
2024/02/23 10:24:17;;;;;;;2.60;1.33;;;;;;;;;;5072409;28;20447;-69
2024/02/23 10:26:44;;;;;;;0.80;0.60;;;;;;;;;;5072323;28;20457;-69
2024/02/23 10:29:11;;;;;;;2.17;0.57;;;;;;;;;;5072291;28;20934;-69
2024/02/23 10:31:39;;;;;;;0.80;0.80;;;;;;;;;;5072885;28;20530;-69
2024/02/23 10:34:11;;;;;;;0.80;0.80;;;;;;;;;;5076196;28;20545;-69
2024/02/23 10:36:38;;;;;;;3.20;1.60;;;;;;;;;;5076008;28;20524;-68
2024/02/23 10:39:05;;;;;;;1.90;0.70;;;;;;;;;;5075482;28;21001;-69
2024/02/23 10:41:35;;;;;;;1.07;0.50;;;;;;;;;;5075674;28;20562;-68
2024/02/23 10:44:03;;;;;;;1.00;0.63;;;;;;;;;;5075696;28;20439;-68
2024/02/23 10:46:31;;;;;;;0.60;0.50;;;;;;;;;;5075488;28;20438;-68
2024/02/23 10:49:00;;;;;;;1.00;0.70;;;;;;;;;;5075733;28;20874;-68
2024/02/23 10:51:28;;;;;;;3.53;0.87;;;;;;;;;;5075682;28;20451;-69
2024/02/23 10:53:55;;;;;;;1.17;0.73;;;;;;;;;;5075472;28;20530;-69
2024/02/23 10:56:24;;;;;;;0.70;0.50;;;;;;;;;;5075476;28;20872;-69
2024/02/23 10:58:51;;;;;;;1.67;0.70;;;;;;;;;;5075940;28;20786;-69
2024/02/23 11:01:19;;;;;;;0.83;0.60;;;;;;;;;;5075462;28;20561;-70
2024/02/23 11:03:50;;;;;;;2.00;0.77;;;;;;;;;;5075559;28;20450;-70
2024/02/23 11:06:20;;;;;;;2.10;0.60;;;;;;;;;;5075308;28;20455;-70
2024/02/23 11:08:50;;;;;;;1.13;0.60;;;;;;;;;;5075541;28;20469;-70
2024/02/23 11:11:18;;;;;;;3.57;1.30;;;;;;;;;;5075069;28;20792;-70
2024/02/23 11:13:45;;;;;;;1.10;0.60;;;;;;;;;;5075327;28;20443;-70
2024/02/23 11:16:12;;;;;;;0.70;0.50;;;;;;;;;;5075154;28;20460;-70
2024/02/23 11:18:41;;;;;;;2.23;0.60;;;;;;;;;;5074962;28;20450;-70
2024/02/23 11:21:11;;;;;;;1.00;0.60;;;;;;;;;;5074987;28;20525;-69
2024/02/23 11:23:42;;;;;;;2.10;0.60;;;;;;;;;;5074966;28;20526;-70
2024/02/23 11:26:12;;;;;;;1.73;1.10;;;;;;;;;;5075064;28;20443;-70
2024/02/23 11:28:45;;;;;;;1.67;0.60;;;;;;;;;;5075010;28;20501;-70
2024/02/23 11:31:13;;;;;;;1.17;0.80;;;;;;;;;;5075028;28;20919;-70
2024/02/23 11:33:40;;;;;;;0.80;0.70;;;;;;;;;;5074741;28;20478;-72
2024/02/23 11:36:07;;;;;;;1.77;0.70;;;;;;;;;;5074603;28;20451;-71
2024/02/23 11:38:34;;;;;;;3.00;0.70;;;;;;;;;;5074537;28;20436;-70
2024/02/23 11:41:01;;;;;;;0.80;0.60;;;;;;;;;;5074712;28;20515;-70
2024/02/23 11:43:30;;;;;;;1.00;0.60;;;;;;;;;;5073254;28;20539;-71
2024/02/23 11:45:57;;;;;;;1.40;0.90;;;;;;;;;;5074506;28;20618;-70
2024/02/23 11:48:24;;;;;;;1.63;0.90;;;;;;;;;;5074401;28;20443;-69
2024/02/23 11:50:52;;;;;;;0.90;0.63;;;;;;;;;;5074234;28;20989;-71
2024/02/23 11:53:21;;;;;;;2.50;0.80;;;;;;;;;;5074540;28;20530;-71
2024/02/23 11:55:48;;;;;;;1.40;0.60;;;;;;;;;;5074370;28;20447;-71
2024/02/23 11:58:16;;;;;;;0.70;0.50;;;;;;;;;;5074407;28;20479;-71
2024/02/23 12:00:45;;;;;;;1.93;0.90;;;;;;;;;;5074255;28;20494;-71
2024/02/23 12:03:12;;;;;;;3.60;0.70;;;;;;;;;;5073958;28;20934;-71
2024/02/23 12:05:39;;;;;;;1.50;0.50;;;;;;;;;;5074281;28;20444;-72
2024/02/23 12:08:06;;;;;;;0.90;0.63;;;;;;;;;;5074153;28;20534;-71
2024/02/23 12:10:33;;;;;;;0.70;0.70;;;;;;;;;;5074006;28;20523;-71
2024/02/23 12:13:00;;;;;;;1.57;0.80;;;;;;;;;;5074018;28;20439;-71
2024/02/23 12:15:28;;;;;;;1.00;0.70;;;;;;;;;;5073864;28;20536;-70
2024/02/23 12:17:59;;;;;;;0.70;0.70;;;;;;;;;;5073720;28;20819;-71
2024/02/23 12:20:26;;;;;;;3.23;0.70;;;;;;;;;;5073844;28;20486;-71
2024/02/23 12:22:57;;;;;;;0.70;0.60;;;;;;;;;;5073819;28;20530;-71
2024/02/23 12:25:24;;;;;;;1.07;0.80;;;;;;;;;;5073646;28;20450;-71
2024/02/23 12:27:55;;;;;;;4.40;0.70;;;;;;;;;;5073697;28;20440;-72
2024/02/23 12:30:22;;;;;;;1.57;0.70;;;;;;;;;;5073637;28;20815;-71
2024/02/23 12:32:49;;;;;;;1.20;0.60;;;;;;;;;;5073753;28;20450;-71
2024/02/23 12:35:17;;;;;;;1.77;0.77;;;;;;;;;;5073689;28;20487;-71
2024/02/23 12:37:45;;;;;;;0.80;0.60;;;;;;;;;;5073571;28;20467;-71
2024/02/23 12:40:12;;;;;;;1.33;0.80;;;;;;;;;;5073089;28;20978;-71
2024/02/23 12:42:39;;;;;;;1.50;0.63;;;;;;;;;;5073530;28;20570;-71
2024/02/23 12:45:06;;;;;;;1.57;0.73;;;;;;;;;;5073238;28;20534;-71
2024/02/23 12:47:33;;;;;;;1.03;0.60;;;;;;;;;;5073449;28;20475;-72
2024/02/23 12:50:00;;;;;;;2.20;0.80;;;;;;;;;;5073210;28;20977;-71
2024/02/23 12:52:28;;;;;;;1.20;0.70;;;;;;;;;;5073162;28;20443;-70
2024/02/23 12:54:56;;;;;;;0.83;0.60;;;;;;;;;;5072877;28;20531;-71
2024/02/23 12:57:22;;;;;;;3.40;0.70;;;;;;;;;;5073088;28;20522;-71
2024/02/23 12:59:48;;;;;;;1.20;0.60;;;;;;;;;;5073288;28;20531;-72
2024/02/23 13:02:15;;;;;;;1.13;0.80;;;;;;;;;;5073173;28;20574;-71
2024/02/23 13:04:48;;;;;;;1.93;0.77;;;;;;;;;;5073214;28;20535;-71
2024/02/23 13:07:15;;;;;;;1.13;0.60;;;;;;;;;;5072880;28;20431;-71
2024/02/23 13:09:43;;;;;;;2.53;0.60;;;;;;;;;;5072918;28;20443;-71
2024/02/23 13:12:10;;;;;;;2.77;1.07;;;;;;;;;;5072883;28;20531;-71
2024/02/23 13:14:37;;;;;;;0.87;0.70;;;;;;;;;;5073111;28;20567;-71
2024/02/23 13:17:04;;;;;;;1.07;0.60;;;;;;;;;;5073147;28;20440;-71
2024/02/23 13:19:31;;;;;;;1.00;0.60;;;;;;;;;;5073235;28;20439;-71
2024/02/23 13:22:00;;;;;;;1.10;0.60;;;;;;;;;;5072950;28;20584;-71
2024/02/23 13:24:27;;;;;;;0.83;0.70;;;;;;;;;;5072939;28;20432;-71
2024/02/23 13:26:55;;;;;;;1.97;0.60;;;;;;;;;;5072808;28;20451;-71
2024/02/23 13:29:22;;;;;;;2.90;0.60;;;;;;;;;;5072809;28;20535;-70
2024/02/23 13:31:49;;;;;;;1.00;0.60;;;;;;;;;;5072947;28;20530;-71
2024/02/23 13:34:17;;;;;;;1.97;0.87;;;;;;;;;;5072926;28;20870;-71
2024/02/23 13:36:44;;;;;;;1.10;0.70;;;;;;;;;;5072854;28;20440;-71
2024/02/23 13:39:11;;;;;;;1.37;0.70;;;;;;;;;;5072569;28;20472;-71
2024/02/23 13:41:38;;;;;;;1.40;0.80;;;;;;;;;;5072554;28;20989;-71
2024/02/23 13:44:07;;;;;;;3.60;0.83;;;;;;;;;;5072850;28;20447;-71
2024/02/23 13:46:37;;;;;;;1.63;0.70;;;;;;;;;;5072693;28;20447;-71
2024/02/23 13:49:05;;;;;;;2.50;0.90;;;;;;;;;;5072320;28;20508;-70
2024/02/23 13:51:32;;;;;;;1.37;0.80;;;;;;;;;;5072366;28;20538;-71
2024/02/23 13:53:59;;;;;;;0.90;0.70;;;;;;;;;;5072521;28;20888;-71
2024/02/23 13:56:26;;;;;;;1.13;0.77;;;;;;;;;;5072352;28;20533;-71
2024/02/23 13:58:52;;;;;;;1.27;0.80;;;;;;;;;;5072505;28;20475;-71
2024/02/23 14:01:21;;;;;;;1.30;0.50;;;;;;;;;;5072622;28;20517;-71
2024/02/23 14:03:48;;;;;;;1.57;0.80;;;;;;;;;;5072530;28;20884;-71
2024/02/23 14:06:14;;;;;;;0.90;0.73;;;;;;;;;;5072479;28;20444;-70
2024/02/23 14:08:42;;;;;;;0.77;0.70;;;;;;;;;;5076378;28;20446;-71
2024/02/23 14:11:09;;;;;;;1.23;0.80;;;;;;;;;;5076443;28;20446;-71
2024/02/23 14:13:36;;;;;;;1.13;0.70;;;;;;;;;;5076395;28;20533;-71
2024/02/23 14:16:04;;;;;;;3.13;1.00;;;;;;;;;;5076146;28;20449;-72
2024/02/23 14:18:36;;;;;;;0.63;0.57;;;;;;;;;;5076123;28;20445;-71
2024/02/23 14:21:03;;;;;;;1.90;0.80;;;;;;;;;;5075981;28;21139;-70
2024/02/23 14:23:30;;;;;;;0.80;0.70;;;;;;;;;;5076220;28;20893;-71
2024/02/23 14:25:57;;;;;;;1.90;0.70;;;;;;;;;;5076072;28;20475;-70
2024/02/23 14:28:24;;;;;;;0.83;0.70;;;;;;;;;;5076115;28;20563;-71
2024/02/23 14:30:51;;;;;;;0.90;0.70;;;;;;;;;;5076004;28;20485;-70
2024/02/23 14:33:18;;;;;;;1.43;0.70;;;;;;;;;;5075730;28;20926;-70
2024/02/23 14:35:46;;;;;;;1.23;0.60;;;;;;;;;;5075987;28;20501;-70
2024/02/23 14:38:13;;;;;;;1.13;1.03;;;;;;;;;;5075917;28;20443;-70
2024/02/23 14:40:40;;;;;;;2.37;0.70;;;;;;;;;;5075514;28;20481;-69
2024/02/23 14:43:08;;;;;;;2.40;1.10;;;;;;;;;;5075760;28;20535;-70